createdAt,value
2019-03-03T00:02:09.034Z,9.57
2019-03-03T00:04:39.388Z,8.10
2019-03-03T00:07:09.725Z,8.00
2019-03-03T00:09:40.058Z,7.17
2019-03-03T00:12:10.406Z,8.17
2019-03-03T00:14:40.868Z,6.17
2019-03-03T00:17:11.218Z,6.53
2019-03-03T00:19:41.616Z,5.77
2019-03-03T00:22:11.897Z,6.63
2019-03-03T00:24:42.307Z,6.93
2019-03-03T00:27:12.587Z,6.43
2019-03-03T00:29:42.913Z,6.53
2019-03-03T00:32:13.198Z,5.30
2019-03-03T00:34:43.523Z,4.57
2019-03-03T00:37:28.748Z,6.80
2019-03-03T00:40:18.050Z,5.53
2019-03-03T00:43:22.483Z,7.23
2019-03-03T00:46:10.338Z,5.27
2019-03-03T00:48:58.199Z,4.83
2019-03-03T00:51:34.261Z,5.47
2019-03-03T00:54:16.103Z,5.73
2019-03-03T00:57:11.414Z,6.23
2019-03-03T01:00:00.292Z,6.73
2019-03-03T01:02:38.609Z,7.30
2019-03-03T01:05:26.837Z,7.37
2019-03-03T01:08:15.043Z,8.00
2019-03-03T01:11:04.292Z,8.90
2019-03-03T01:13:41.256Z,7.93
2019-03-03T01:16:39.482Z,8.33
2019-03-03T01:19:18.739Z,8.87
2019-03-03T01:21:58.719Z,9.03
2019-03-03T01:24:57.009Z,8.53
2019-03-03T01:27:28.152Z,9.60
2019-03-03T01:29:58.474Z,10.93
2019-03-03T01:32:28.808Z,9.60
2019-03-03T01:34:59.137Z,9.33
2019-03-03T01:37:29.517Z,9.60
2019-03-03T01:39:59.801Z,10.33
2019-03-03T01:42:30.186Z,10.00
2019-03-03T01:45:00.532Z,9.23
2019-03-03T01:47:30.882Z,9.40
2019-03-03T01:50:01.250Z,9.37
2019-03-03T01:52:31.674Z,9.07
2019-03-03T01:55:02.056Z,9.70
2019-03-03T01:57:32.578Z,10.57
2019-03-03T02:00:03.027Z,9.43
2019-03-03T02:02:35.318Z,8.37
2019-03-03T02:05:06.028Z,9.23
2019-03-03T02:07:36.394Z,8.80
2019-03-03T02:10:06.862Z,8.53
2019-03-03T02:12:37.196Z,8.13
2019-03-03T02:15:08.282Z,7.70
2019-03-03T02:17:38.619Z,7.63
2019-03-03T02:20:09.113Z,8.17
2019-03-03T02:22:39.684Z,7.20
2019-03-03T02:25:10.007Z,7.57
2019-03-03T02:27:41.967Z,7.33
2019-03-03T02:30:17.300Z,7.37
2019-03-03T02:32:47.665Z,7.40
2019-03-03T02:35:18.244Z,6.90
2019-03-03T02:37:48.680Z,6.90
2019-03-03T02:40:19.216Z,6.93
2019-03-03T02:42:49.589Z,7.67
2019-03-03T02:45:20.431Z,6.23
2019-03-03T02:47:50.789Z,6.60
2019-03-03T02:50:21.124Z,6.97
2019-03-03T02:52:51.421Z,7.23
2019-03-03T02:55:21.784Z,6.07
2019-03-03T02:57:52.079Z,7.03
2019-03-03T03:00:22.768Z,6.27
2019-03-03T03:02:55.018Z,6.40
2019-03-03T03:05:40.499Z,6.37
2019-03-03T03:08:15.251Z,6.50
2019-03-03T03:11:07.575Z,6.00
2019-03-03T03:13:43.815Z,6.43
2019-03-03T03:16:19.504Z,4.97
2019-03-03T03:19:11.534Z,5.23
2019-03-03T03:21:56.194Z,4.73
2019-03-03T03:24:46.344Z,4.10
2019-03-03T03:27:23.892Z,4.77
2019-03-03T03:30:13.135Z,4.63
2019-03-03T03:33:05.083Z,4.30
2019-03-03T03:35:44.027Z,3.57
2019-03-03T03:38:29.386Z,3.47
2019-03-03T03:41:24.715Z,4.03
2019-03-03T03:44:07.225Z,3.70
2019-03-03T03:46:46.545Z,3.80
2019-03-03T03:49:38.945Z,4.23
2019-03-03T03:52:37.093Z,3.50
2019-03-03T03:55:25.067Z,3.40
2019-03-03T03:58:20.590Z,3.83
2019-03-03T04:01:17.955Z,3.10
2019-03-03T04:04:05.634Z,3.33
2019-03-03T04:06:44.823Z,4.60
2019-03-03T04:09:25.876Z,3.80
2019-03-03T04:12:05.338Z,2.50
2019-03-03T04:14:53.102Z,4.03
2019-03-03T04:17:51.774Z,3.50
2019-03-03T04:20:53.247Z,3.30
2019-03-03T04:23:41.418Z,2.80
2019-03-03T04:26:33.694Z,3.03
2019-03-03T04:29:21.674Z,3.70
2019-03-03T04:32:06.453Z,2.73
2019-03-03T04:34:47.173Z,3.20
2019-03-03T04:37:39.524Z,3.47
2019-03-03T04:40:17.153Z,4.10
2019-03-03T04:42:53.043Z,3.47
2019-03-03T04:45:40.093Z,3.10
2019-03-03T04:48:28.244Z,3.40
2019-03-03T04:51:26.809Z,4.00
2019-03-03T04:54:22.305Z,3.47
2019-03-03T04:57:14.541Z,3.40
2019-03-03T05:00:12.974Z,3.47
2019-03-03T05:03:08.364Z,2.90
2019-03-03T05:06:06.594Z,3.50
2019-03-03T05:08:44.330Z,3.20
2019-03-03T05:12:10.330Z,3.10
2019-03-03T05:14:40.671Z,3.60
2019-03-03T05:17:23.638Z,3.53
2019-03-03T05:19:57.504Z,3.67
2019-03-03T05:22:27.859Z,3.10
2019-03-03T05:24:58.315Z,3.27
2019-03-03T05:27:28.668Z,3.53
2019-03-03T05:29:58.983Z,3.87
2019-03-03T05:32:29.355Z,3.03
2019-03-03T05:34:59.675Z,3.57
2019-03-03T05:37:29.962Z,3.10
2019-03-03T05:40:00.332Z,3.10
2019-03-03T05:42:30.650Z,3.70
2019-03-03T05:45:00.986Z,3.37
2019-03-03T05:47:31.340Z,4.00
2019-03-03T05:50:01.623Z,3.33
2019-03-03T05:52:31.989Z,3.33
2019-03-03T05:55:02.282Z,4.27
2019-03-03T05:57:32.574Z,3.23
2019-03-03T06:00:02.878Z,3.27
2019-03-03T06:02:33.239Z,3.50
2019-03-03T06:05:03.518Z,5.27
2019-03-03T06:07:33.898Z,3.67
2019-03-03T06:10:04.541Z,4.23
2019-03-03T06:12:34.954Z,3.70
2019-03-03T06:15:06.209Z,3.67
2019-03-03T06:17:36.530Z,6.17
2019-03-03T06:20:07.859Z,3.83
2019-03-03T06:22:38.173Z,4.27
2019-03-03T06:25:08.954Z,3.43
2019-03-03T06:27:40.394Z,4.67
2019-03-03T06:30:12.248Z,4.23
2019-03-03T06:32:42.703Z,4.40
2019-03-03T06:35:13.149Z,4.50
2019-03-03T06:37:43.541Z,4.63
2019-03-03T06:40:14.010Z,5.47
2019-03-03T06:42:44.361Z,4.63
2019-03-03T06:45:14.801Z,3.93
2019-03-03T06:47:45.335Z,4.00
2019-03-03T06:50:15.785Z,4.40
2019-03-03T06:52:46.114Z,4.87
2019-03-03T06:55:16.399Z,5.50
2019-03-03T06:57:46.751Z,5.93
2019-03-03T07:00:18.190Z,6.07
2019-03-03T07:02:48.543Z,5.83
2019-03-03T07:05:18.840Z,6.67
2019-03-03T07:07:49.197Z,6.23
2019-03-03T07:10:19.565Z,7.20
2019-03-03T07:12:49.903Z,6.50
2019-03-03T07:15:20.214Z,6.77
2019-03-03T07:17:50.535Z,7.10
2019-03-03T07:20:20.898Z,8.30
2019-03-03T07:22:51.226Z,7.87
2019-03-03T07:25:21.631Z,6.80
2019-03-03T07:27:51.976Z,7.07
2019-03-03T07:30:22.255Z,7.53
2019-03-03T07:33:12.138Z,8.07
2019-03-03T07:35:42.501Z,7.73
2019-03-03T07:38:12.879Z,6.37
2019-03-03T07:40:43.233Z,6.53
2019-03-03T07:43:13.569Z,7.13
2019-03-03T07:45:43.870Z,7.33
2019-03-03T07:48:14.159Z,6.97
2019-03-03T07:50:44.465Z,5.70
2019-03-03T07:53:14.741Z,6.00
2019-03-03T07:55:46.101Z,7.27
2019-03-03T07:58:16.432Z,9.70
2019-03-03T08:00:46.756Z,6.47
2019-03-03T08:03:17.044Z,5.87
2019-03-03T08:05:47.346Z,6.33
2019-03-03T08:08:20.972Z,6.60
2019-03-03T08:10:53.189Z,6.37
2019-03-03T08:13:23.491Z,6.13
2019-03-03T08:15:53.907Z,6.23
2019-03-03T08:18:24.294Z,8.23
2019-03-03T08:20:54.640Z,8.03
2019-03-03T08:23:24.974Z,6.33
2019-03-03T08:25:55.296Z,6.87
2019-03-03T08:28:25.660Z,7.43
2019-03-03T08:30:55.992Z,7.17
2019-03-03T08:33:26.386Z,7.63
2019-03-03T08:35:56.728Z,8.73
2019-03-03T08:38:27.149Z,6.90
2019-03-03T08:40:57.535Z,8.97
2019-03-03T08:43:49.789Z,8.30
2019-03-03T08:46:43.774Z,7.43
2019-03-03T08:49:39.399Z,8.97
2019-03-03T08:52:34.924Z,8.80
2019-03-03T08:55:12.886Z,7.87
2019-03-03T08:57:58.160Z,9.17
2019-03-03T09:00:59.435Z,9.33
2019-03-03T09:03:55.069Z,8.40
2019-03-03T09:06:50.481Z,8.03
2019-03-03T09:09:39.709Z,9.30
2019-03-03T09:12:22.040Z,9.20
2019-03-03T09:15:10.181Z,9.30
2019-03-03T09:17:58.050Z,8.30
2019-03-03T09:20:38.141Z,9.70
2019-03-03T09:23:30.442Z,7.63
2019-03-03T09:26:09.490Z,7.83
2019-03-03T09:29:01.846Z,10.07
2019-03-03T09:31:51.081Z,8.40
2019-03-03T09:34:39.027Z,8.13
2019-03-03T09:37:27.445Z,7.87
2019-03-03T09:40:16.728Z,8.70
2019-03-03T09:43:05.956Z,7.50
2019-03-03T09:45:58.087Z,7.40
2019-03-03T09:48:46.325Z,8.37
2019-03-03T09:51:32.446Z,7.97
2019-03-03T09:54:20.432Z,7.90
2019-03-03T09:57:01.721Z,7.47
2019-03-03T09:59:57.010Z,8.37
2019-03-03T10:02:52.121Z,8.37
2019-03-03T10:05:53.421Z,8.33
2019-03-03T10:08:51.852Z,7.40
2019-03-03T10:11:53.245Z,7.60
2019-03-03T10:14:41.701Z,6.27
2019-03-03T10:17:37.258Z,6.40
2019-03-03T10:20:22.015Z,6.07
2019-03-03T10:23:17.385Z,5.87
2019-03-03T10:26:12.256Z,5.50
2019-03-03T10:29:07.283Z,6.47
2019-03-03T10:32:05.831Z,6.20
2019-03-03T10:34:55.194Z,5.80
2019-03-03T10:37:39.501Z,6.70
2019-03-03T10:40:23.797Z,6.17
2019-03-03T10:43:25.080Z,5.57
2019-03-03T10:46:18.051Z,5.33
2019-03-03T10:49:08.472Z,5.60
2019-03-03T10:51:47.667Z,5.43
2019-03-03T10:54:43.110Z,5.13
2019-03-03T10:57:30.333Z,5.83
2019-03-03T11:00:19.616Z,6.07
2019-03-03T11:03:08.250Z,5.50
2019-03-03T11:05:48.385Z,5.30
2019-03-03T11:08:37.733Z,6.57
2019-03-03T11:11:30.716Z,5.13
2019-03-03T11:14:20.259Z,5.30
2019-03-03T11:17:03.334Z,5.10
2019-03-03T11:19:52.712Z,5.43
2019-03-03T11:22:31.775Z,4.17
2019-03-03T11:25:17.434Z,5.00
2019-03-03T11:27:56.201Z,4.67
2019-03-03T11:30:48.397Z,4.30
2019-03-03T11:33:37.671Z,4.10
2019-03-03T11:36:16.214Z,4.87
2019-03-03T11:39:14.670Z,5.30
2019-03-03T11:42:04.177Z,4.03
2019-03-03T11:45:02.409Z,4.80
2019-03-03T11:48:03.866Z,4.10
2019-03-03T11:50:51.942Z,4.33
2019-03-03T11:53:40.138Z,4.33
2019-03-03T11:56:35.453Z,4.10
2019-03-03T11:59:23.667Z,3.80
2019-03-03T12:02:14.451Z,3.33
2019-03-03T12:05:13.185Z,3.70
2019-03-03T12:08:07.317Z,3.80
2019-03-03T12:11:00.890Z,4.13
2019-03-03T12:13:50.375Z,3.90
2019-03-03T12:16:30.120Z,4.47
2019-03-03T12:19:25.350Z,4.50
2019-03-03T12:22:10.568Z,4.03
2019-03-03T12:24:55.463Z,4.13
2019-03-03T12:28:00.227Z,4.90
2019-03-03T12:30:43.207Z,4.10
2019-03-03T12:33:22.213Z,5.37
2019-03-03T12:36:15.132Z,4.67
2019-03-03T12:39:10.336Z,4.27
2019-03-03T12:41:54.422Z,5.17
2019-03-03T12:44:30.573Z,5.33
2019-03-03T12:47:11.619Z,5.53
2019-03-03T12:49:53.386Z,5.27
2019-03-03T12:52:32.221Z,4.50
2019-03-03T12:55:27.489Z,5.27
2019-03-03T12:58:15.512Z,5.17
2019-03-03T13:00:54.703Z,5.10
2019-03-03T13:03:50.038Z,5.17
2019-03-03T13:06:39.456Z,4.80
2019-03-03T13:09:22.751Z,5.57
2019-03-03T13:12:05.193Z,5.00
2019-03-03T13:14:57.854Z,5.17
2019-03-03T13:17:48.021Z,4.23
2019-03-03T13:20:38.918Z,4.43
2019-03-03T13:23:46.790Z,5.30
2019-03-03T13:26:42.064Z,5.00
2019-03-03T13:29:46.506Z,4.87
2019-03-03T13:32:29.456Z,5.03
2019-03-03T13:35:18.473Z,5.33
2019-03-03T13:38:16.871Z,5.70
2019-03-03T13:41:12.332Z,5.70
2019-03-03T13:43:42.651Z,6.07
2019-03-03T13:46:13.158Z,5.90
2019-03-03T13:48:43.656Z,6.37
2019-03-03T13:51:14.108Z,6.03
2019-03-03T13:53:44.567Z,4.77
2019-03-03T13:56:15.282Z,6.00
2019-03-03T13:58:45.673Z,6.40
2019-03-03T14:01:16.079Z,5.60
2019-03-03T14:03:46.603Z,5.83
2019-03-03T14:06:17.121Z,6.27
2019-03-03T14:08:48.099Z,6.00
2019-03-03T14:11:27.845Z,5.93
2019-03-03T14:13:58.277Z,5.07
2019-03-03T14:16:28.753Z,6.03
2019-03-03T14:18:59.359Z,6.40
2019-03-03T14:21:29.979Z,5.63
2019-03-03T14:24:01.357Z,5.50
2019-03-03T14:26:31.983Z,5.87
2019-03-03T14:29:02.386Z,6.70
2019-03-03T14:31:32.872Z,5.37
2019-03-03T14:34:03.313Z,6.67
2019-03-03T14:36:33.676Z,5.83
2019-03-03T14:39:05.799Z,5.60
2019-03-03T14:41:37.032Z,5.97
2019-03-03T14:44:07.394Z,5.97
2019-03-03T14:46:37.798Z,5.83
2019-03-03T14:49:08.119Z,5.83
2019-03-03T14:51:38.556Z,5.77
2019-03-03T14:54:09.031Z,6.10
2019-03-03T14:56:39.490Z,6.57
2019-03-03T14:59:09.872Z,6.30
2019-03-03T15:01:40.273Z,5.97
2019-03-03T15:04:10.646Z,6.07
2019-03-03T15:06:41.169Z,5.97
2019-03-03T15:09:24.695Z,6.30
2019-03-03T15:11:55.187Z,7.00
2019-03-03T15:14:25.523Z,6.27
2019-03-03T15:16:55.907Z,6.93
2019-03-03T15:19:26.369Z,6.43
2019-03-03T15:21:56.834Z,6.07
2019-03-03T15:24:27.325Z,6.73
2019-03-03T15:26:57.862Z,6.60
2019-03-03T15:29:28.227Z,6.43
2019-03-03T15:31:58.734Z,7.33
2019-03-03T15:34:29.128Z,6.30
2019-03-03T15:36:59.579Z,7.43
2019-03-03T15:39:30.027Z,7.50
2019-03-03T15:42:00.419Z,7.83
2019-03-03T15:44:30.874Z,7.83
2019-03-03T15:47:01.383Z,7.17
2019-03-03T15:49:31.762Z,7.30
2019-03-03T15:52:02.135Z,7.37
2019-03-03T15:54:32.587Z,8.00
2019-03-03T15:57:03.085Z,6.80
2019-03-03T15:59:33.504Z,7.53
2019-03-03T16:02:03.914Z,6.27
2019-03-03T16:04:34.438Z,7.70
2019-03-03T16:07:05.317Z,6.33
2019-03-03T16:09:35.803Z,7.23
2019-03-03T16:12:06.437Z,7.13
2019-03-03T16:14:37.286Z,7.43
2019-03-03T16:17:07.832Z,7.73
2019-03-03T16:19:38.634Z,7.30
2019-03-03T16:22:09.062Z,6.50
2019-03-03T16:24:39.646Z,7.37
2019-03-03T16:27:10.093Z,7.47
2019-03-03T16:29:40.612Z,8.13
2019-03-03T16:32:11.094Z,8.30
2019-03-03T16:34:41.674Z,9.03
2019-03-03T16:37:12.303Z,8.90
2019-03-03T16:39:42.624Z,8.87
2019-03-03T16:42:16.487Z,9.17
2019-03-03T16:44:47.136Z,9.87
2019-03-03T16:47:17.743Z,9.37
2019-03-03T16:49:48.983Z,8.93
2019-03-03T16:52:19.467Z,7.80
2019-03-03T16:54:49.880Z,9.20
2019-03-03T16:57:20.502Z,10.57
2019-03-03T16:59:50.879Z,9.77
2019-03-03T17:02:21.402Z,10.33
2019-03-03T17:04:55.414Z,10.07
2019-03-03T17:07:25.917Z,9.37
2019-03-03T17:09:56.471Z,8.87
2019-03-03T17:12:26.768Z,7.63
2019-03-03T17:14:57.352Z,8.27
2019-03-03T17:17:27.967Z,7.50
2019-03-03T17:19:58.413Z,7.70
2019-03-03T17:22:29.155Z,7.07
2019-03-03T17:24:59.515Z,7.93
2019-03-03T17:27:30.012Z,7.23
2019-03-03T17:30:00.555Z,7.60
2019-03-03T17:32:31.099Z,7.07
2019-03-03T17:35:01.495Z,6.70
2019-03-03T17:37:32.036Z,6.07
2019-03-03T17:40:02.432Z,7.67
2019-03-03T17:42:33.009Z,7.67
2019-03-03T17:45:03.462Z,6.80
2019-03-03T17:47:34.894Z,6.83
2019-03-03T17:50:05.624Z,7.23
2019-03-03T17:52:35.924Z,6.93
2019-03-03T17:55:06.897Z,7.27
2019-03-03T17:57:37.456Z,7.20
2019-03-03T18:00:12.726Z,6.70
2019-03-03T18:02:43.247Z,6.43
2019-03-03T18:05:16.967Z,6.30
2019-03-03T18:07:47.528Z,6.80
2019-03-03T18:10:18.499Z,6.13
2019-03-03T18:12:48.824Z,6.50
2019-03-03T18:15:19.428Z,6.63
2019-03-03T18:17:50.649Z,5.87
2019-03-03T18:20:21.362Z,5.27
2019-03-03T18:22:51.695Z,5.83
2019-03-03T18:25:22.154Z,5.40
2019-03-03T18:27:52.530Z,6.33
2019-03-03T18:30:23.217Z,5.07
2019-03-03T18:32:53.868Z,5.93
2019-03-03T18:35:24.322Z,5.93
2019-03-03T18:37:54.744Z,5.70
2019-03-03T18:40:25.234Z,4.80
2019-03-03T18:42:55.592Z,4.73
2019-03-03T18:45:26.138Z,4.70
2019-03-03T18:47:56.693Z,5.73
2019-03-03T18:50:27.243Z,4.67
2019-03-03T18:52:59.800Z,4.33
2019-03-03T18:55:30.036Z,4.60
2019-03-03T18:58:00.672Z,5.23
2019-03-03T19:00:31.503Z,4.90
2019-03-03T19:03:02.255Z,5.83
2019-03-03T19:05:33.742Z,5.37
2019-03-03T19:08:08.619Z,4.33
2019-03-03T19:10:41.614Z,4.23
2019-03-03T19:13:15.103Z,4.03
2019-03-03T19:15:45.559Z,5.80
2019-03-03T19:18:15.911Z,4.77
2019-03-03T19:20:46.484Z,4.53
2019-03-03T19:23:16.792Z,3.87
2019-03-03T19:25:47.086Z,5.17
2019-03-03T19:28:17.656Z,4.57
2019-03-03T19:30:47.959Z,4.50
2019-03-03T19:33:22.024Z,4.83
2019-03-03T19:35:52.488Z,4.30
2019-03-03T19:38:22.878Z,4.80
2019-03-03T19:40:53.274Z,4.53
2019-03-03T19:43:23.788Z,4.03
2019-03-03T19:45:54.323Z,4.40
2019-03-03T19:48:30.314Z,4.07
2019-03-03T19:51:03.343Z,4.23
2019-03-03T19:53:33.864Z,3.97
2019-03-03T19:56:04.652Z,4.23
2019-03-03T19:58:34.960Z,3.90
2019-03-03T20:01:08.135Z,5.17
2019-03-03T20:03:38.651Z,4.60
2019-03-03T20:06:09.131Z,4.87
2019-03-03T20:08:39.729Z,5.10
2019-03-03T20:11:10.843Z,5.07
2019-03-03T20:13:41.596Z,4.77
2019-03-03T20:16:13.309Z,4.70
2019-03-03T20:18:49.208Z,5.37
2019-03-03T20:21:19.583Z,4.53
2019-03-03T20:23:50.188Z,4.60
2019-03-03T20:26:20.989Z,4.43
2019-03-03T20:28:51.936Z,4.80
2019-03-03T20:31:22.440Z,3.97
2019-03-03T20:33:53.038Z,4.33
2019-03-03T20:36:24.881Z,4.80
2019-03-03T20:38:55.298Z,5.03
2019-03-03T20:41:25.738Z,4.30
2019-03-03T20:43:56.291Z,4.03
2019-03-03T20:46:27.013Z,4.50
2019-03-03T20:48:57.550Z,4.40
2019-03-03T20:51:28.541Z,5.23
2019-03-03T20:54:02.433Z,4.83
2019-03-03T20:56:33.080Z,4.40
2019-03-03T20:59:03.470Z,4.17
2019-03-03T21:01:33.900Z,5.27
2019-03-03T21:04:07.011Z,4.03
2019-03-03T21:06:40.885Z,4.37
2019-03-03T21:09:11.745Z,4.70
2019-03-03T21:11:44.026Z,5.10
2019-03-03T21:14:14.635Z,4.90
2019-03-03T21:16:45.814Z,4.40
2019-03-03T21:19:16.159Z,4.80
2019-03-03T21:21:46.739Z,5.60
2019-03-03T21:24:17.349Z,4.40
2019-03-03T21:26:47.844Z,4.30
2019-03-03T21:29:18.181Z,4.23
2019-03-03T21:31:50.235Z,4.60
2019-03-03T21:34:21.323Z,5.57
2019-03-03T21:36:52.173Z,5.63
2019-03-03T21:39:22.655Z,4.40
2019-03-03T21:41:53.440Z,3.97
2019-03-03T21:44:24.179Z,3.67
2019-03-03T21:46:54.709Z,4.07
2019-03-03T21:49:25.186Z,5.30
2019-03-03T21:51:55.794Z,4.67
2019-03-03T21:54:26.279Z,4.43
2019-03-03T21:56:57.042Z,4.67
2019-03-03T21:59:28.920Z,5.00
2019-03-03T22:02:00.854Z,4.77
2019-03-03T22:04:31.494Z,3.50
2019-03-03T22:07:02.299Z,4.10
2019-03-03T22:09:32.950Z,4.10
2019-03-03T22:12:03.558Z,4.53
2019-03-03T22:14:34.312Z,4.20
2019-03-03T22:17:04.975Z,4.37
2019-03-03T22:19:35.489Z,3.57
2019-03-03T22:22:06.165Z,4.23
2019-03-03T22:24:36.529Z,4.07
2019-03-03T22:27:06.925Z,3.93
2019-03-03T22:29:37.291Z,3.40
2019-03-03T22:32:07.719Z,3.83
2019-03-03T22:34:38.992Z,4.33
2019-03-03T22:37:09.361Z,3.40
2019-03-03T22:39:39.886Z,3.47
2019-03-03T22:42:10.264Z,3.23
2019-03-03T22:44:41.052Z,3.80
2019-03-03T22:47:11.535Z,3.30
2019-03-03T22:49:42.018Z,3.83
2019-03-03T22:52:12.373Z,4.20
2019-03-03T22:54:42.772Z,3.43
2019-03-03T22:57:13.260Z,3.50
2019-03-03T22:59:43.809Z,4.03
2019-03-03T23:02:14.882Z,3.83
2019-03-03T23:05:19.504Z,4.20
2019-03-03T23:08:17.310Z,3.33
2019-03-03T23:11:31.593Z,3.53
2019-03-03T23:14:25.707Z,3.47
2019-03-03T23:17:21.151Z,4.50
2019-03-03T23:20:07.572Z,3.50
2019-03-03T23:23:05.776Z,3.13
2019-03-03T23:26:01.555Z,4.53
2019-03-03T23:28:32.008Z,4.07
2019-03-03T23:31:02.565Z,3.90
2019-03-03T23:33:32.818Z,3.50
2019-03-03T23:36:03.476Z,3.47
2019-03-03T23:38:33.912Z,3.83
2019-03-03T23:41:04.330Z,3.70
2019-03-03T23:43:34.809Z,3.80
2019-03-03T23:46:05.225Z,3.33
2019-03-03T23:48:35.539Z,3.00
2019-03-03T23:51:05.992Z,3.23
2019-03-03T23:53:36.549Z,3.77
2019-03-03T23:56:06.877Z,3.50
2019-03-03T23:58:37.392Z,2.90
